Time;durP1;ratioP1;P1;durP2;ratioP2;P2;SDS_P1;SDS_P2;PMS_P1;PMS_P2;Temp;Humidity;BMP_temperature;BMP_pressure;BME280_temperature;BME280_humidity;BME280_pressure;Samples;Min_cycle;Max_cycle;Signal;HPM_P1;HPM_P2
2021/07/10 00:00:38;;;;;;;5.70;5.20;;;14.10;99.90;;;;;;5048734;28;20470;-67
2021/07/10 00:03:05;;;;;;;6.60;6.00;;;14.10;99.90;;;;;;5048513;28;20513;-66
2021/07/10 00:05:33;;;;;;;6.27;5.70;;;14.10;99.90;;;;;;5048958;28;20820;-66
2021/07/10 00:08:00;;;;;;;5.80;5.30;;;14.00;99.90;;;;;;5048877;28;20466;-66
2021/07/10 00:10:27;;;;;;;6.53;5.87;;;14.00;99.90;;;;;;5048434;28;20463;-66
2021/07/10 00:12:54;;;;;;;6.67;6.07;;;14.00;99.90;;;;;;5048522;28;20958;-67
2021/07/10 00:15:24;;;;;;;6.13;5.60;;;14.00;99.90;;;;;;5048920;28;20621;-66
2021/07/10 00:17:51;;;;;;;6.50;5.67;;;13.90;99.90;;;;;;5048673;28;20459;-66
2021/07/10 00:20:19;;;;;;;5.67;5.10;;;13.90;99.90;;;;;;5051316;28;20985;-66
2021/07/10 00:22:46;;;;;;;7.40;5.90;;;13.90;99.90;;;;;;5052429;28;20470;-66
2021/07/10 00:25:15;;;;;;;5.70;5.20;;;13.90;99.90;;;;;;5052568;28;20479;-66
2021/07/10 00:27:43;;;;;;;6.43;5.80;;;13.90;99.90;;;;;;5051981;28;20576;-66
2021/07/10 00:30:11;;;;;;;7.13;5.77;;;13.80;99.90;;;;;;5052179;28;20465;-66
2021/07/10 00:32:40;;;;;;;7.53;5.70;;;13.80;99.90;;;;;;5052241;28;20474;-66
2021/07/10 00:35:08;;;;;;;7.40;5.50;;;13.80;99.90;;;;;;5052209;28;20483;-66
2021/07/10 00:37:35;;;;;;;9.40;6.23;;;13.80;99.90;;;;;;5052378;28;20459;-66
2021/07/10 00:40:02;;;;;;;6.17;5.43;;;13.80;99.90;;;;;;5051989;28;20466;-67
2021/07/10 00:42:29;;;;;;;6.50;5.90;;;13.80;99.90;;;;;;5052367;28;20954;-66
2021/07/10 00:44:56;;;;;;;5.70;5.20;;;13.70;99.90;;;;;;5052548;28;20493;-67
2021/07/10 00:47:23;;;;;;;6.23;5.73;;;13.70;99.90;;;;;;5052376;28;20466;-66
2021/07/10 00:49:51;;;;;;;5.83;5.33;;;13.70;99.90;;;;;;5051834;28;20895;-66
2021/07/10 00:52:18;;;;;;;6.50;5.80;;;13.60;99.90;;;;;;5052129;28;20459;-66
2021/07/10 00:54:44;;;;;;;8.07;6.10;;;13.60;99.90;;;;;;5051739;28;20490;-66
2021/07/10 00:57:12;;;;;;;8.40;6.30;;;13.60;99.90;;;;;;5052209;28;20466;-66
2021/07/10 00:59:40;;;;;;;7.70;5.77;;;13.60;99.90;;;;;;5051376;28;20458;-67
2021/07/10 01:02:08;;;;;;;9.87;6.30;;;13.60;99.90;;;;;;5052103;28;20463;-66
2021/07/10 01:04:35;;;;;;;6.57;5.97;;;13.60;99.90;;;;;;5051686;28;20483;-66
2021/07/10 01:07:03;;;;;;;7.60;5.80;;;13.50;99.90;;;;;;5051890;28;20470;-67
2021/07/10 01:09:31;;;;;;;6.47;5.87;;;13.50;99.90;;;;;;5051188;28;20470;-66
2021/07/10 01:11:58;;;;;;;6.63;6.03;;;13.50;99.90;;;;;;5051961;28;20463;-66
2021/07/10 01:14:26;;;;;;;7.50;6.80;;;13.50;99.90;;;;;;5051548;28;20574;-66
2021/07/10 01:16:53;;;;;;;6.67;6.10;;;13.50;99.90;;;;;;5051720;28;20460;-67
2021/07/10 01:19:25;;;;;;;7.00;5.97;;;13.50;99.90;;;;;;5051181;28;20463;-67
2021/07/10 01:21:53;;;;;;;6.87;6.20;;;13.50;99.90;;;;;;5051612;28;20962;-66
2021/07/10 01:24:20;;;;;;;6.40;5.37;;;13.40;99.90;;;;;;5051372;28;20486;-66
2021/07/10 01:26:47;;;;;;;6.20;5.60;;;13.40;99.90;;;;;;5051347;28;20455;-66
2021/07/10 01:29:14;;;;;;;6.87;6.27;;;13.40;99.90;;;;;;5051057;28;20455;-67
2021/07/10 01:31:41;;;;;;;7.10;5.70;;;13.40;99.90;;;;;;5051143;28;20554;-66
2021/07/10 01:34:08;;;;;;;6.07;5.57;;;13.30;99.90;;;;;;5051012;28;20488;-66
2021/07/10 01:36:35;;;;;;;7.07;6.47;;;13.30;99.90;;;;;;5050691;28;20832;-66
2021/07/10 01:39:06;;;;;;;6.03;5.50;;;13.30;99.90;;;;;;5051138;28;20459;-66
2021/07/10 01:41:44;;;;;;;5.70;5.20;;;13.30;99.90;;;;;;5050944;28;20456;-67
2021/07/10 01:44:12;;;;;;;6.20;5.60;;;13.30;99.90;;;;;;5051014;28;20861;-67
2021/07/10 01:46:39;;;;;;;6.27;5.67;;;13.30;99.90;;;;;;5050906;28;20470;-66
2021/07/10 01:49:06;;;;;;;6.90;6.20;;;13.30;99.90;;;;;;5050922;28;20490;-66
2021/07/10 01:51:33;;;;;;;8.47;7.10;;;13.20;99.90;;;;;;5050450;28;20459;-66
2021/07/10 01:54:00;;;;;;;6.17;5.60;;;13.20;99.90;;;;;;5050605;28;20727;-66
2021/07/10 01:56:28;;;;;;;7.33;6.20;;;13.20;99.90;;;;;;5050822;28;20460;-66
2021/07/10 01:58:55;;;;;;;7.53;6.30;;;13.10;99.90;;;;;;5051082;28;20467;-66
2021/07/10 02:01:22;;;;;;;6.13;5.53;;;13.10;99.90;;;;;;5050302;28;20463;-66
2021/07/10 02:03:49;;;;;;;7.60;6.00;;;13.10;99.90;;;;;;5050405;28;20620;-66
2021/07/10 02:06:17;;;;;;;5.60;5.10;;;13.10;99.90;;;;;;5050847;28;20455;-66
2021/07/10 02:08:44;;;;;;;5.00;4.60;;;13.10;99.90;;;;;;5050438;28;20463;-66
2021/07/10 02:11:10;;;;;;;7.30;5.73;;;13.10;99.90;;;;;;5050234;28;20464;-66
2021/07/10 02:13:39;;;;;;;6.43;5.40;;;13.00;99.90;;;;;;5050205;28;20854;-66
2021/07/10 02:16:06;;;;;;;7.87;6.23;;;13.00;99.90;;;;;;5050502;28;20498;-66
2021/07/10 02:18:32;;;;;;;7.20;6.50;;;13.00;99.90;;;;;;5050198;28;20467;-66
2021/07/10 02:20:59;;;;;;;6.43;5.83;;;13.00;99.90;;;;;;5049846;28;20452;-66
2021/07/10 02:23:26;;;;;;;6.80;5.93;;;13.00;99.90;;;;;;5050141;28;20479;-66
2021/07/10 02:25:53;;;;;;;6.80;6.20;;;12.90;99.90;;;;;;5050203;28;20459;-66
2021/07/10 02:28:20;;;;;;;6.27;5.67;;;12.90;99.90;;;;;;5050282;28;20471;-67
2021/07/10 02:30:48;;;;;;;6.22;5.72;;;12.90;99.90;;;;;;5049393;28;20993;-66
2021/07/10 02:33:16;;;;;;;6.70;6.10;;;12.90;99.90;;;;;;5049787;28;20197;-66
2021/07/10 02:35:43;;;;;;;7.27;5.67;;;12.80;99.90;;;;;;5049942;28;20522;-66
2021/07/10 02:38:10;;;;;;;6.60;5.90;;;12.80;99.90;;;;;;5050313;28;20462;-66
2021/07/10 02:40:37;;;;;;;5.40;4.93;;;12.80;99.90;;;;;;5049403;28;20463;-67
2021/07/10 02:43:04;;;;;;;8.27;6.13;;;12.80;99.90;;;;;;5049519;28;20459;-66
2021/07/10 02:45:31;;;;;;;8.70;6.00;;;12.80;99.90;;;;;;5049993;28;20837;-66
2021/07/10 02:48:00;;;;;;;6.60;5.87;;;12.70;99.90;;;;;;5049777;28;20460;-66
2021/07/10 02:50:28;;;;;;;6.67;6.07;;;12.70;99.90;;;;;;5049359;28;20503;-67
2021/07/10 02:52:55;;;;;;;6.53;5.93;;;12.70;99.90;;;;;;5049581;28;20466;-67
2021/07/10 02:55:23;;;;;;;6.63;6.00;;;12.70;99.90;;;;;;5066874;22;20232;-70
2021/07/10 02:57:50;;;;;;;6.20;5.60;;;12.70;99.90;;;;;;5069555;28;20485;-71
2021/07/10 03:00:21;;;;;;;8.37;5.90;;;12.60;99.90;;;;;;5068852;28;20507;-69
2021/07/10 03:02:47;;;;;;;6.65;5.60;;;12.60;99.90;;;;;;5069513;28;20832;-70
2021/07/10 03:05:16;;;;;;;6.57;5.90;;;12.60;99.90;;;;;;5069373;28;20216;-70
2021/07/10 03:07:43;;;;;;;6.53;6.03;;;12.60;99.90;;;;;;5068477;28;20466;-70
2021/07/10 03:10:13;;;;;;;6.30;5.70;;;12.60;99.90;;;;;;5068936;28;20561;-71
2021/07/10 03:12:40;;;;;;;5.80;4.83;;;12.60;99.90;;;;;;5069098;28;20465;-69
2021/07/10 03:15:08;;;;;;;6.60;5.83;;;12.50;99.90;;;;;;5069369;28;20489;-69
2021/07/10 03:17:36;;;;;;;6.10;5.60;;;12.50;99.90;;;;;;5069109;28;20459;-72
2021/07/10 03:20:04;;;;;;;6.83;5.90;;;12.50;99.90;;;;;;5069397;28;20651;-71
2021/07/10 03:22:33;;;;;;;6.80;6.10;;;12.50;99.90;;;;;;5069235;28;20461;-71
2021/07/10 03:25:00;;;;;;;6.33;5.73;;;12.50;99.90;;;;;;5069268;28;20478;-72
2021/07/10 03:27:27;;;;;;;7.90;5.97;;;12.40;99.90;;;;;;5069295;28;20485;-69
2021/07/10 03:29:54;;;;;;;6.30;5.70;;;12.40;99.90;;;;;;5068472;28;20454;-71
2021/07/10 03:32:20;;;;;;;6.60;6.00;;;12.40;99.90;;;;;;5069202;28;20204;-71
2021/07/10 03:34:47;;;;;;;7.38;6.20;;;12.40;99.90;;;;;;5069182;28;20514;-69
2021/07/10 03:37:14;;;;;;;6.40;5.80;;;12.40;99.90;;;;;;5069106;28;20222;-71
2021/07/10 03:39:42;;;;;;;7.60;6.37;;;12.40;99.90;;;;;;5068260;28;20215;-71
2021/07/10 03:42:09;;;;;;;5.80;5.30;;;12.40;99.90;;;;;;5068539;28;20462;-72
2021/07/10 03:44:36;;;;;;;7.33;6.50;;;12.30;99.90;;;;;;5068829;28;20224;-70
2021/07/10 03:47:03;;;;;;;7.17;6.23;;;12.30;99.90;;;;;;5068655;28;20469;-71
2021/07/10 03:49:30;;;;;;;7.33;5.77;;;12.30;99.90;;;;;;5068807;28;20833;-70
2021/07/10 03:51:57;;;;;;;6.50;5.90;;;12.30;99.90;;;;;;5068504;28;20821;-70
2021/07/10 03:54:24;;;;;;;6.17;5.57;;;12.30;99.90;;;;;;5070473;28;20478;-71
2021/07/10 03:56:52;;;;;;;6.13;5.63;;;12.30;99.90;;;;;;5073063;28;20477;-70
2021/07/10 03:59:19;;;;;;;7.30;6.20;;;12.30;99.90;;;;;;5072665;28;20455;-71
2021/07/10 04:01:46;;;;;;;9.02;6.45;;;12.40;99.90;;;;;;5072929;28;20462;-70
2021/07/10 04:04:13;;;;;;;6.77;6.23;;;12.40;99.90;;;;;;5072873;28;20683;-71
2021/07/10 04:06:41;;;;;;;7.30;6.43;;;12.40;99.90;;;;;;5072877;28;20801;-71
2021/07/10 04:09:07;;;;;;;6.35;5.75;;;12.40;99.90;;;;;;5072464;28;20569;-69
2021/07/10 04:11:34;;;;;;;6.65;6.05;;;12.40;99.90;;;;;;5072795;28;20207;-71
2021/07/10 04:14:03;;;;;;;6.43;5.82;;;12.50;99.90;;;;;;5072234;28;20583;-71
2021/07/10 04:16:29;;;;;;;7.40;6.70;;;12.50;99.90;;;;;;5072747;28;20235;-71
2021/07/10 04:18:56;;;;;;;9.95;6.57;;;12.50;99.90;;;;;;5072332;28;20980;-71
2021/07/10 04:21:23;;;;;;;9.10;6.25;;;12.50;99.90;;;;;;5072265;28;20612;-70
2021/07/10 04:23:50;;;;;;;6.22;5.63;;;12.50;99.90;;;;;;5072246;28;20224;-70
2021/07/10 04:26:17;;;;;;;6.80;6.20;;;12.60;99.90;;;;;;5072742;28;20199;-71
2021/07/10 04:28:44;;;;;;;6.00;5.50;;;12.60;99.90;;;;;;5072356;28;20200;-70
2021/07/10 04:31:12;;;;;;;6.38;5.72;;;12.60;99.90;;;;;;5071858;28;20473;-70
2021/07/10 04:33:39;;;;;;;6.57;5.90;;;12.60;99.90;;;;;;5072154;28;20227;-71
2021/07/10 04:36:06;;;;;;;6.27;5.67;;;12.60;99.90;;;;;;5071801;28;20512;-70
2021/07/10 04:38:37;;;;;;;7.23;6.53;;;12.70;99.90;;;;;;5072352;28;20477;-69
2021/07/10 04:41:04;;;;;;;7.00;6.40;;;12.70;99.90;;;;;;5071379;28;20465;-71
2021/07/10 04:43:31;;;;;;;8.50;6.83;;;12.70;99.90;;;;;;5071931;28;20878;-71
2021/07/10 04:45:58;;;;;;;7.17;6.47;;;12.70;99.90;;;;;;5071999;28;20462;-70
2021/07/10 04:48:26;;;;;;;7.43;6.73;;;12.70;99.90;;;;;;5072004;28;20458;-69
2021/07/10 04:50:53;;;;;;;7.77;7.00;;;12.80;99.90;;;;;;5071198;28;20462;-69
2021/07/10 04:53:20;;;;;;;8.17;7.37;;;13.00;99.90;;;;;;5071767;28;20478;-70
2021/07/10 04:55:47;;;;;;;9.00;6.90;;;13.00;99.90;;;;;;5071687;28;20505;-70
2021/07/10 04:58:14;;;;;;;7.72;6.85;;;13.10;99.90;;;;;;5071832;28;20466;-70
2021/07/10 05:00:41;;;;;;;8.23;7.17;;;13.30;99.90;;;;;;5071551;28;20204;-71
2021/07/10 05:03:08;;;;;;;7.03;6.43;;;13.30;99.90;;;;;;5071394;28;20458;-70
2021/07/10 05:05:36;;;;;;;7.60;6.80;;;13.30;99.90;;;;;;5071144;28;20287;-71
2021/07/10 05:08:04;;;;;;;8.10;6.23;;;13.30;99.90;;;;;;5071579;28;20461;-70
2021/07/10 05:10:31;;;;;;;7.50;6.80;;;13.40;99.90;;;;;;5071483;28;20458;-70
2021/07/10 05:12:58;;;;;;;7.33;6.63;;;13.40;99.90;;;;;;5071046;28;20463;-69
2021/07/10 05:15:25;;;;;;;8.30;7.50;;;13.40;99.90;;;;;;5071521;28;20509;-70
2021/07/10 05:17:52;;;;;;;7.77;6.97;;;13.50;99.90;;;;;;5071124;28;20466;-71
2021/07/10 05:20:19;;;;;;;7.93;7.13;;;13.50;99.90;;;;;;5070958;28;20463;-71
2021/07/10 05:22:47;;;;;;;11.60;9.30;;;13.60;99.90;;;;;;5061977;28;20460;-70
2021/07/10 05:25:14;;;;;;;10.43;9.17;;;13.60;99.90;;;;;;5051255;28;20647;-69
2021/07/10 05:27:42;;;;;;;11.13;9.47;;;13.70;99.90;;;;;;5051306;28;20464;-68
2021/07/10 05:30:11;;;;;;;10.63;9.43;;;13.70;99.90;;;;;;5050476;28;20464;-70
2021/07/10 05:32:38;;;;;;;9.90;9.00;;;13.80;99.90;;;;;;5051269;28;20483;-70
2021/07/10 05:35:06;;;;;;;9.90;8.93;;;13.90;99.90;;;;;;5050737;28;20479;-70
2021/07/10 05:37:33;;;;;;;11.20;10.17;;;14.00;99.90;;;;;;5051273;28;20491;-70
2021/07/10 05:40:01;;;;;;;11.90;10.60;;;14.10;99.90;;;;;;5050370;28;20800;-70
2021/07/10 05:42:28;;;;;;;10.77;9.57;;;14.10;99.90;;;;;;5051103;28;20467;-70
2021/07/10 05:44:55;;;;;;;11.17;10.20;;;14.20;99.90;;;;;;5049099;28;20486;-69
2021/07/10 05:47:21;;;;;;;10.73;9.70;;;14.30;99.90;;;;;;5031117;28;20463;-70
2021/07/10 05:49:48;;;;;;;11.57;10.30;;;14.40;99.90;;;;;;5030480;28;20460;-71
2021/07/10 05:52:15;;;;;;;9.33;8.43;;;14.40;99.90;;;;;;5030810;28;20460;-68
2021/07/10 05:54:42;;;;;;;10.40;9.50;;;14.50;99.90;;;;;;5030734;28;20489;-69
2021/07/10 05:57:10;;;;;;;9.63;8.73;;;14.60;99.90;;;;;;5030586;28;20594;-70
2021/07/10 05:59:37;;;;;;;9.47;8.57;;;14.70;99.90;;;;;;5030181;28;20824;-70
2021/07/10 06:02:06;;;;;;;9.70;8.67;;;14.80;99.90;;;;;;5030439;28;20521;-70
2021/07/10 06:04:33;;;;;;;8.87;8.07;;;14.90;99.90;;;;;;5030420;28;20559;-70
2021/07/10 06:07:00;;;;;;;8.47;7.77;;;15.00;99.90;;;;;;5030417;28;20460;-70
2021/07/10 06:09:27;;;;;;;9.73;8.73;;;15.20;99.90;;;;;;5030296;28;20460;-70
2021/07/10 06:11:53;;;;;;;8.90;8.10;;;15.20;99.90;;;;;;5030306;28;20464;-70
2021/07/10 06:14:21;;;;;;;9.43;7.50;;;15.30;99.90;;;;;;5030530;28;20476;-70
2021/07/10 06:16:48;;;;;;;8.17;7.43;;;15.40;99.90;;;;;;5029547;28;20542;-70
2021/07/10 06:19:15;;;;;;;11.03;8.73;;;15.50;99.90;;;;;;5037312;28;20809;-74
2021/07/10 06:21:42;;;;;;;8.50;7.70;;;15.60;99.90;;;;;;5040169;28;20514;-69
2021/07/10 06:24:08;;;;;;;12.57;7.90;;;15.70;99.90;;;;;;5037541;28;20494;-70
2021/07/10 06:26:35;;;;;;;7.07;6.47;;;15.80;99.90;;;;;;5039599;28;20462;-70
2021/07/10 06:29:02;;;;;;;6.20;5.70;;;15.90;99.90;;;;;;5038675;28;20973;-68
2021/07/10 06:31:31;;;;;;;6.77;6.17;;;15.90;99.90;;;;;;5037124;28;20462;-70
2021/07/10 06:33:59;;;;;;;7.90;6.80;;;16.10;99.90;;;;;;5038856;28;20479;-70
2021/07/10 06:36:27;;;;;;;6.67;6.07;;;16.30;99.90;;;;;;5040289;28;20479;-68
2021/07/10 06:38:54;;;;;;;7.07;6.30;;;16.30;99.90;;;;;;5038110;28;20452;-71
2021/07/10 06:41:21;;;;;;;5.90;5.40;;;16.30;99.90;;;;;;5037887;28;20513;-70
2021/07/10 06:43:48;;;;;;;6.73;5.40;;;16.40;99.90;;;;;;5039349;28;20844;-70
2021/07/10 06:46:14;;;;;;;5.90;5.40;;;16.40;99.90;;;;;;5037991;28;20457;-71
2021/07/10 06:48:43;;;;;;;6.10;5.60;;;16.50;99.90;;;;;;5038203;28;20530;-70
2021/07/10 06:51:09;;;;;;;7.00;6.30;;;16.60;99.90;;;;;;5034665;28;20463;-69
2021/07/10 06:53:37;;;;;;;6.10;5.50;;;16.60;99.90;;;;;;5048247;28;20511;-70
2021/07/10 06:56:04;;;;;;;6.37;5.77;;;16.70;99.90;;;;;;5049317;28;20938;-69
2021/07/10 06:58:31;;;;;;;5.80;5.30;;;16.80;99.90;;;;;;5049730;28;20470;-70
2021/07/10 07:00:58;;;;;;;6.60;6.03;;;16.80;99.90;;;;;;5049425;28;20467;-69
2021/07/10 07:03:25;;;;;;;6.13;5.63;;;16.90;99.90;;;;;;5049846;28;20490;-70
2021/07/10 07:05:54;;;;;;;6.50;5.80;;;16.90;99.90;;;;;;5049715;28;20523;-70
2021/07/10 07:08:21;;;;;;;5.90;5.40;;;17.00;99.90;;;;;;5050144;28;20815;-70
2021/07/10 07:10:47;;;;;;;7.37;5.70;;;17.10;99.90;;;;;;5048940;28;20463;-70
2021/07/10 07:13:14;;;;;;;5.83;5.23;;;17.10;99.90;;;;;;5041575;28;20829;-70
2021/07/10 07:15:41;;;;;;;5.90;5.30;;;17.20;99.90;;;;;;5028848;28;20466;-69
2021/07/10 07:18:08;;;;;;;6.20;5.60;;;17.20;99.90;;;;;;5028732;28;20822;-69
2021/07/10 07:20:35;;;;;;;6.73;5.30;;;17.30;99.90;;;;;;5028687;28;20461;-70
2021/07/10 07:23:04;;;;;;;5.80;5.30;;;17.40;99.90;;;;;;5028300;28;20464;-70
2021/07/10 07:25:31;;;;;;;5.30;4.80;;;17.40;99.90;;;;;;5028863;28;20839;-70
2021/07/10 07:27:58;;;;;;;6.03;5.53;;;17.50;99.90;;;;;;5028587;28;21335;-69
2021/07/10 07:30:25;;;;;;;6.30;5.70;;;17.50;99.90;;;;;;5041745;28;20448;-70
2021/07/10 07:32:52;;;;;;;6.73;5.97;;;17.60;99.90;;;;;;5048291;28;20460;-70
2021/07/10 07:35:19;;;;;;;5.73;5.17;;;17.70;99.90;;;;;;5048570;28;21012;-70
2021/07/10 07:37:47;;;;;;;5.00;4.60;;;17.70;99.90;;;;;;5048626;28;20502;-70
2021/07/10 07:40:16;;;;;;;5.63;5.20;;;17.80;99.90;;;;;;5027977;28;20460;-70
2021/07/10 07:42:43;;;;;;;5.17;4.67;;;17.80;99.90;;;;;;5028479;28;20452;-69
2021/07/10 07:45:11;;;;;;;5.90;5.40;;;17.90;99.90;;;;;;5028296;28;20482;-71
2021/07/10 07:47:38;;;;;;;5.47;4.77;;;18.00;99.90;;;;;;5036077;28;20455;-70
2021/07/10 07:50:07;;;;;;;6.53;5.63;;;18.10;99.90;;;;;;5045733;28;20459;-70
2021/07/10 07:52:34;;;;;;;6.53;5.97;;;18.10;99.90;;;;;;5045994;28;21025;-69
2021/07/10 07:55:03;;;;;;;5.70;5.30;;;18.20;99.90;;;;;;5045648;28;20475;-69
2021/07/10 07:57:31;;;;;;;5.27;4.87;;;18.20;99.90;;;;;;5046347;28;20560;-69
2021/07/10 07:59:58;;;;;;;5.03;4.60;;;18.40;99.90;;;;;;5045116;28;20488;-69
2021/07/10 08:02:25;;;;;;;5.43;5.00;;;18.50;99.90;;;;;;5046179;28;20853;-70
2021/07/10 08:04:53;;;;;;;5.90;5.40;;;18.60;99.90;;;;;;5045579;28;20474;-69
2021/07/10 08:07:21;;;;;;;5.30;4.80;;;18.60;99.90;;;;;;5044330;28;20459;-70
2021/07/10 08:09:47;;;;;;;5.80;5.20;;;18.70;99.90;;;;;;5042959;28;20834;-69
2021/07/10 08:12:18;;;;;;;6.93;5.23;;;18.80;99.90;;;;;;5046548;28;21031;-71
2021/07/10 08:14:47;;;;;;;6.80;5.60;;;18.90;99.90;;;;;;5046084;28;20479;-69
2021/07/10 08:17:15;;;;;;;5.83;5.33;;;19.00;99.90;;;;;;5045234;28;20506;-68
2021/07/10 08:19:43;;;;;;;5.67;5.17;;;19.10;99.90;;;;;;5064990;28;20465;-69
2021/07/10 08:22:11;;;;;;;6.03;5.50;;;19.10;99.90;;;;;;5065919;28;20469;-70
2021/07/10 08:24:38;;;;;;;6.60;4.87;;;19.10;99.90;;;;;;5065732;28;20522;-70
2021/07/10 08:27:06;;;;;;;5.07;4.13;;;19.20;99.90;;;;;;5054768;28;20471;-70
2021/07/10 08:29:33;;;;;;;5.30;4.90;;;19.20;99.90;;;;;;5046174;28;20463;-69
2021/07/10 08:32:02;;;;;;;5.57;5.07;;;19.30;99.90;;;;;;5045268;28;21069;-69
2021/07/10 08:34:29;;;;;;;5.00;4.60;;;19.40;99.90;;;;;;5046245;28;20483;-70
2021/07/10 08:37:02;;;;;;;5.63;5.00;;;19.50;99.90;;;;;;5045779;28;20479;-69
2021/07/10 08:39:29;;;;;;;5.67;5.17;;;19.60;99.90;;;;;;5045388;28;20883;-70
2021/07/10 08:41:57;;;;;;;5.30;4.80;;;19.70;99.90;;;;;;5049796;28;20464;-70
2021/07/10 08:44:26;;;;;;;5.67;4.93;;;19.70;99.90;;;;;;5049880;28;20490;-69
2021/07/10 08:46:54;;;;;;;5.40;4.90;;;19.80;99.90;;;;;;5049183;28;20466;-70
2021/07/10 08:49:22;;;;;;;4.47;4.07;;;19.80;99.90;;;;;;5049552;28;20466;-70
2021/07/10 08:51:51;;;;;;;4.20;3.90;;;19.90;99.90;;;;;;5049496;28;20459;-69
2021/07/10 08:54:18;;;;;;;4.43;3.57;;;19.90;99.90;;;;;;5049150;28;20540;-70
2021/07/10 08:56:45;;;;;;;3.60;3.30;;;19.90;99.90;;;;;;5049206;28;20533;-69
2021/07/10 08:59:13;;;;;;;4.43;4.13;;;20.00;99.90;;;;;;5048434;28;20499;-69
2021/07/10 09:01:42;;;;;;;4.53;3.50;;;20.00;99.90;;;;;;5049445;28;20463;-70
2021/07/10 09:04:08;;;;;;;4.40;4.00;;;20.00;99.90;;;;;;5049163;28;20479;-70
2021/07/10 09:06:37;;;;;;;4.13;3.83;;;20.20;99.90;;;;;;5046855;28;20542;-71
2021/07/10 09:09:04;;;;;;;4.20;3.87;;;20.30;99.90;;;;;;5046750;28;20467;-70
2021/07/10 09:11:31;;;;;;;4.10;3.70;;;20.30;99.90;;;;;;5049332;28;20502;-70
2021/07/10 09:13:58;;;;;;;4.53;4.13;;;20.40;99.90;;;;;;5048758;28;20569;-70
2021/07/10 09:16:27;;;;;;;10.47;5.70;;;20.40;99.90;;;;;;5049670;28;20491;-69
2021/07/10 09:18:55;;;;;;;19.77;10.03;;;20.40;99.90;;;;;;5049126;28;20467;-70
2021/07/10 09:21:39;;;;;;;5.03;4.53;;;20.50;99.90;;;;;;5049216;28;20474;-69
2021/07/10 09:24:08;;;;;;;3.97;3.57;;;20.50;99.90;;;;;;5048492;28;21221;-70
2021/07/10 09:26:39;;;;;;;3.67;3.37;;;20.70;99.90;;;;;;5048676;28;20470;-70
2021/07/10 09:29:10;;;;;;;6.93;4.67;;;20.70;99.90;;;;;;5048203;28;20467;-70
2021/07/10 09:31:39;;;;;;;6.70;5.03;;;20.70;99.90;;;;;;5048458;28;20467;-70
2021/07/10 09:34:09;;;;;;;9.97;5.20;;;20.90;99.90;;;;;;5048119;28;21045;-69
2021/07/10 09:36:37;;;;;;;3.50;3.20;;;21.00;99.90;;;;;;5049224;28;20865;-69
2021/07/10 09:39:11;;;;;;;3.87;3.57;;;21.00;99.90;;;;;;5047438;28;20545;-71
2021/07/10 09:41:37;;;;;;;3.77;3.37;;;21.20;99.90;;;;;;5048746;28;20499;-69
2021/07/10 09:46:33;;;;;;;3.80;3.50;;;21.30;99.90;;;;;;5046550;28;20475;-66
2021/07/10 09:49:16;;;;;;;5.50;3.30;;;21.30;99.90;;;;;;5048475;28;20458;-66
2021/07/10 09:51:43;;;;;;;3.67;3.37;;;21.40;99.90;;;;;;5046965;28;20462;-66
2021/07/10 09:54:12;;;;;;;5.13;3.70;;;21.40;99.90;;;;;;5047585;28;20476;-66
2021/07/10 09:56:40;;;;;;;4.30;3.90;;;21.50;99.90;;;;;;5048218;28;20541;-66
2021/07/10 09:59:18;;;;;;;6.40;3.73;;;21.60;99.90;;;;;;5048081;28;20463;-66
2021/07/10 10:01:47;;;;;;;3.60;3.30;;;21.70;99.90;;;;;;5048158;28;20835;-66
2021/07/10 10:04:26;;;;;;;4.27;3.80;;;21.70;99.90;;;;;;5047994;28;21084;-66
2021/07/10 10:06:54;;;;;;;4.03;3.67;;;21.80;99.90;;;;;;5048112;28;20856;-66
2021/07/10 10:09:24;;;;;;;4.17;3.77;;;21.90;99.90;;;;;;5047849;28;20459;-66
2021/07/10 10:11:55;;;;;;;4.17;3.87;;;21.90;99.90;;;;;;5048085;28;20470;-66
2021/07/10 10:14:22;;;;;;;4.13;3.50;;;22.00;99.90;;;;;;5047336;28;20513;-66
2021/07/10 10:16:49;;;;;;;4.77;3.30;;;22.10;99.90;;;;;;5047656;28;20487;-66
2021/07/10 10:19:17;;;;;;;3.80;3.50;;;22.20;99.90;;;;;;5046847;28;20546;-66
2021/07/10 10:21:45;;;;;;;4.80;3.27;;;22.20;99.90;;;;;;5047639;28;20467;-66
2021/07/10 10:24:12;;;;;;;3.80;3.47;;;22.30;99.90;;;;;;5047298;28;21166;-66
2021/07/10 10:26:41;;;;;;;3.67;3.37;;;22.30;99.90;;;;;;5047860;28;20472;-66
2021/07/10 10:29:09;;;;;;;4.60;4.20;;;22.30;99.90;;;;;;5046550;28;20470;-66
2021/07/10 10:31:37;;;;;;;5.20;4.40;;;22.40;99.90;;;;;;5047642;28;20463;-66
2021/07/10 10:34:05;;;;;;;13.20;5.00;;;22.50;99.90;;;;;;5047338;28;20487;-66
2021/07/10 10:36:33;;;;;;;4.73;3.73;;;22.60;99.90;;;;;;5046540;28;21174;-67
2021/07/10 10:39:00;;;;;;;4.40;4.00;;;22.70;99.90;;;;;;5047818;28;20834;-66
2021/07/10 10:41:27;;;;;;;4.10;3.80;;;22.80;99.90;;;;;;5046674;28;20467;-66
2021/07/10 10:43:56;;;;;;;3.37;3.17;;;22.80;99.90;;;;;;5046824;28;21040;-66
2021/07/10 10:46:24;;;;;;;4.13;3.73;;;22.80;99.90;;;;;;5043837;28;20485;-66
2021/07/10 10:48:52;;;;;;;3.80;3.50;;;22.80;99.90;;;;;;5047243;28;20487;-66
2021/07/10 10:51:30;;;;;;;3.63;3.33;;;22.90;99.90;;;;;;5047024;28;20478;-66
2021/07/10 10:54:27;;;;;;;3.47;3.20;;;22.90;99.90;;;;;;5047931;28;20479;-66
2021/07/10 10:56:54;;;;;;;5.20;4.70;;;23.00;99.90;;;;;;5040122;28;20498;-66
2021/07/10 10:59:37;;;;;;;4.03;3.73;;;23.00;99.90;;;;;;5046921;28;20826;-66
2021/07/10 11:02:05;;;;;;;3.60;3.30;;;23.10;99.90;;;;;;5047584;28;20473;-66
2021/07/10 11:05:00;;;;;;;4.40;4.00;;;23.20;99.90;;;;;;5047688;28;20484;-66
2021/07/10 11:07:28;;;;;;;4.40;3.77;;;23.30;99.90;;;;;;5047056;28;20461;-66
2021/07/10 11:10:13;;;;;;;3.70;3.40;;;23.40;99.90;;;;;;5047413;28;20468;-66
2021/07/10 11:13:06;;;;;;;3.47;3.17;;;23.50;99.90;;;;;;5047961;28;20478;-66
2021/07/10 11:15:42;;;;;;;3.23;3.03;;;23.50;99.90;;;;;;5000149;28;20471;-66
2021/07/10 11:18:26;;;;;;;4.40;3.23;;;23.50;99.90;;;;;;5047709;28;20522;-66
2021/07/10 11:20:53;;;;;;;3.97;3.50;;;23.50;99.90;;;;;;5046752;28;20498;-66
2021/07/10 11:23:30;;;;;;;4.70;3.53;;;23.40;99.90;;;;;;5047169;28;20488;-66
2021/07/10 11:26:01;;;;;;;3.77;3.47;;;23.40;99.90;;;;;;5047107;28;20497;-66
2021/07/10 11:28:33;;;;;;;4.30;3.73;;;23.50;99.90;;;;;;5047115;28;20873;-66
2021/07/10 11:31:08;;;;;;;4.00;3.70;;;23.60;99.90;;;;;;5047160;28;20448;-66
2021/07/10 11:33:59;;;;;;;2.93;2.73;;;23.70;99.90;;;;;;5047037;28;20514;-66
2021/07/10 11:36:46;;;;;;;3.90;3.60;;;23.80;99.90;;;;;;5046925;28;20463;-66
2021/07/10 11:39:43;;;;;;;3.33;3.03;;;23.90;99.90;;;;;;5046197;28;20470;-66
2021/07/10 11:42:37;;;;;;;4.67;4.27;;;24.00;99.90;;;;;;5002035;28;20467;-66
2021/07/10 11:45:19;;;;;;;4.00;3.60;;;24.00;99.90;;;;;;5046518;28;20521;-66
2021/07/10 11:47:50;;;;;;;3.60;3.30;;;24.10;99.90;;;;;;5047183;28;20457;-66
2021/07/10 11:50:19;;;;;;;3.50;3.13;;;24.30;99.90;;;;;;5046538;28;20463;-66
2021/07/10 11:52:55;;;;;;;3.90;3.60;;;24.30;99.90;;;;;;5046712;28;20475;-66
2021/07/10 11:55:24;;;;;;;4.80;4.07;;;24.40;99.90;;;;;;5046728;28;20577;-66
2021/07/10 11:57:51;;;;;;;4.00;3.70;;;24.30;99.90;;;;;;5046502;28;20531;-66
2021/07/10 12:00:18;;;;;;;3.60;3.30;;;24.20;99.90;;;;;;5046430;28;20524;-66
2021/07/10 12:02:45;;;;;;;3.60;3.30;;;24.10;99.90;;;;;;5047598;28;20467;-66
2021/07/10 12:05:15;;;;;;;3.90;3.60;;;24.20;99.90;;;;;;5046627;28;20490;-66
2021/07/10 12:07:43;;;;;;;3.60;3.30;;;24.20;99.90;;;;;;5046760;28;20513;-66
2021/07/10 12:10:12;;;;;;;4.87;4.13;;;24.20;99.90;;;;;;5044876;28;20471;-66
2021/07/10 12:12:47;;;;;;;4.50;4.10;;;24.30;99.90;;;;;;5046610;28;20459;-66
2021/07/10 12:15:15;;;;;;;4.07;3.70;;;24.30;99.90;;;;;;5047138;28;20478;-66
2021/07/10 12:17:47;;;;;;;3.73;3.43;;;24.50;99.90;;;;;;5050807;28;21001;-66
2021/07/10 12:20:19;;;;;;;5.00;4.10;;;24.50;99.90;;;;;;5050049;28;20470;-66
2021/07/10 12:22:55;;;;;;;3.67;3.37;;;24.50;99.90;;;;;;5050851;28;20501;-66
2021/07/10 12:25:24;;;;;;;3.97;3.67;;;24.50;99.90;;;;;;5050982;28;20484;-66
2021/07/10 12:27:56;;;;;;;4.43;3.93;;;24.40;99.90;;;;;;5050352;28;20470;-66
2021/07/10 12:30:48;;;;;;;4.00;3.60;;;24.50;99.90;;;;;;5050488;28;20467;-66
2021/07/10 12:33:46;;;;;;;3.97;3.67;;;24.60;99.90;;;;;;5050404;28;20474;-66
2021/07/10 12:36:20;;;;;;;4.00;3.70;;;24.50;99.90;;;;;;4988513;28;20462;-66
2021/07/10 12:39:07;;;;;;;3.73;3.43;;;24.40;99.90;;;;;;5039198;28;20483;-66
2021/07/10 12:41:36;;;;;;;6.57;3.63;;;24.40;99.90;;;;;;5050323;28;20962;-66
2021/07/10 12:44:12;;;;;;;4.37;3.97;;;24.40;99.90;;;;;;5050209;28;20536;-66
2021/07/10 12:46:51;;;;;;;4.00;3.70;;;24.40;99.90;;;;;;5050395;28;20466;-66
2021/07/10 12:49:19;;;;;;;4.43;4.03;;;24.40;99.90;;;;;;5049626;28;20462;-66
2021/07/10 12:51:48;;;;;;;4.20;3.90;;;24.40;99.90;;;;;;5050247;28;20467;-66
2021/07/10 12:54:33;;;;;;;3.50;3.20;;;24.30;99.90;;;;;;5050009;28;20486;-66
2021/07/10 12:57:15;;;;;;;4.37;3.00;;;24.30;99.90;;;;;;5050351;28;20455;-66